Terminal Aerodrome Forecast
Issued by NWS

Home | Current Version | Previous Version | Text Only | Print | Product List | Glossary On
Versions: 1 2 3 4 5 6 7 8 9 10 11 12 13 14 15 16 17 18
906
FTUS43 KIND 282152 AAB
TAFHUF
TAF AMD
KHUF 282152Z 2822/2918 08007KT 4SM SHRA BR VCTS OVC060CB
      TEMPO 2822/2823 34015G25KT 1SM +TSRA BR OVC020CB
     FM290000 08007KT 3SM SHRA BR VCTS OVC020CB
     FM290200 11004KT 4SM SHRA BR OVC008
     FM290600 19006KT 5SM SHRA BR VCTS OVC008CB
     FM291500 13009KT 4SM SHRA BR VCTS OVC020CB=

USA.gov is the U.S. government's official web portal to all federal, state and local government web resources and services.